Western Asset Mortgage Capit (WMC) Latest Bloomsberg Price


Mffais Ranking #1512 Overall / #22 Industry
Industry: Mortgage Finance

Number of Companies: 55 (Ranking #2236 Overall/#37 Industry)
Inflow: $ 1,534 (K) (Ranking #2458 Overall/#39 Industry)
Outflow: $ -3,506 (K)
Mffais Flow: $ -1,971 (K) (Ranking #1512 Overall/#22 Industry)


Receive a FREE weekly executive review of stocks moving into the top 10, taking the top industy spot or moving up within their industry. Sent directly to your Inbox every Saturday. Sign up today and get last week's review immediately sent to you.

We value and respect your privacy. Please read our Terms and Conditions which states our firm commitment to your privacy. Your email address will not be shared with a third party, nor will it be sold or used for purposes other than subscription for the weekly review.

Owner CPOR Shares Action Qty Chg Invested (K) Total Current Value (K)
Clarivest Asset Management Llc 2016-09-30 27,062 Added More 27,039 $ 267 $ 267
Cutler Group Lp 2016-09-30 30,696 Added More 20,596 $ 203 $ 303
Ellington Management Group Llc 2016-09-30 20,500 New Holding 20,500 $ 202 $ 202
Group One Trading L P 2016-09-30 14,521 New Holding 14,521 $ 143 $ 143
Sg Americas Securities Llc 2016-09-30 12,934 New Holding 12,934 $ 127 $ 127
Kcg Holdings Inc 2016-09-30 11,945 New Holding 11,945 $ 118 $ 118
Creative Planning 2016-09-30 265,650 Added More 8,868 $ 87 $ 2,627
Indexiq Advisors Llc 2016-09-30 40,689 Added More 7,956 $ 78 $ 402
Northern Trust Corp 2016-09-30 449,849 Added More 5,612 $ 55 $ 4,449
Ladenburg Thalmann Financial Services Inc 2016-09-30 20,638 Added More 5,358 $ 52 $ 204
Ifp Advisors Inc 2016-09-30 9,197 Added More 4,565 $ 45 $ 90
Aperio Group Llc 2016-09-30 25,123 Added More 2,898 $ 28 $ 248
Tower Research Capital Llc Trc 2016-09-30 2,689 New Holding 2,689 $ 26 $ 26
Van Eck Associates Corp 2016-09-30 160,728 Added More 2,421 $ 23 $ 1,589
First New York Securities Llc Ny 2016-09-30 2,020 New Holding 2,020 $ 19 $ 19
Cambridge Investment Research Advisors Inc 2016-09-30 72,582 Added More 1,250 $ 12 $ 717
Teachers Advisors Inc 2016-09-30 67,737 Added More 1,100 $ 10 $ 669
California State Teachers Retirement System 2016-09-30 86,753 Added More 900 $ 8 $ 857
Msi Financial Services Inc 2016-09-30 1,957 Added More 690 $ 6 $ 19
Blackrock Inc 2016-09-30 14,228 Added More 429 $ 4 $ 140
Rhumbline Advisers 2016-09-30 50,307 Added More 300 $ 2 $ 497
Cwm Llc 2016-09-30 219 New Holding 219 $ 2 $ 2
Next Financial Group Inc 2016-09-30 200 New Holding 200 $ 1 $ 1
Penserra Capital Management Llc 2016-09-30 603 Added More 122 $ 1 $ 5
American International Group Inc 2016-09-30 23,605 Added More 36 $ 0 $ 233
New York State Common Retirement Fund 2016-09-30 38,300 No Change 0 $ 0 $ 378
Zurcher Kantonalbank Zurich Cantonalbank 2016-09-30 1,380 No Change 0 $ 0 $ 13
Goodwin Daniel L 2016-09-30 10,970 No Change 0 $ 0 $ 108
Fifth Third Bancorp 2016-09-30 3,300 No Change 0 $ 0 $ 32
Nationwide Fund Advisors 2016-09-30 27,862 No Change 0 $ 0 $ 275
Us Bancorp De 2016-09-30 2,209 No Change 0 $ 0 $ 21
Hancock Holding Co 2016-09-30 60,000 No Change 0 $ 0 $ 593
Cetera Advisors Llc 2016-09-30 37,475 No Change 0 $ 0 $ 370
Pnc Financial Services Group Inc 2016-09-30 0 Sold All -158 $ -1 $ 0
Strs Ohio 2016-09-30 13,400 Sold Some -500 $ -4 $ 132
Simplex Trading Llc 2016-09-30 0 Sold All -577 $ -5 $ 0
Parametric Portfolio Associates Llc 2016-09-30 183,093 Sold Some -892 $ -8 $ 1,810
Blackrock Investment Management Llc 2016-09-30 180,167 Sold Some -1,448 $ -14 $ 1,781
Panagora Asset Management Inc 2016-09-30 0 Sold All -1,879 $ -18 $ 0
Advisor Group Inc 2016-09-30 2,342 Sold Some -1,900 $ -18 $ 23
Legal General Group Plc 2016-09-30 6,052 Sold Some -2,083 $ -20 $ 59
Raymond James Associates 2016-09-30 93,798 Sold Some -3,202 $ -31 $ 927
Swiss National Bank 2016-09-30 71,832 Sold Some -4,000 $ -39 $ 710
Teacher Retirement System Of Texas 2016-09-30 0 Sold All -5,859 $ -57 $ 0
Investors Capital Advisory Services 2016-06-30 0 Sold All -10,994 $ -103 $ 0
Raymond James Financial Services Advisors Inc 2016-09-30 10,583 Sold Some -10,771 $ -106 $ 104
Kennedy Capital Management Inc 2016-09-30 312,344 Sold Some -12,631 $ -124 $ 3,089
Peak6 Investments L P 2016-09-30 12,048 Sold Some -15,952 $ -157 $ 119
Fox Run Management L L C 2016-09-30 0 Sold All -18,200 $ -179 $ 0
Spot Trading L L C 2016-09-30 0 Sold All -20,179 $ -199 $ 0
Counsel Portfolio Services Inc 2016-06-30 0 Sold All -31,573 $ -296 $ 0
Dynamic Technology Lab Private Ltd 2016-09-30 0 Sold All -34,557 $ -341 $ 0
Menta Capital Llc 2016-09-30 0 Sold All -44,600 $ -441 $ 0
Guggenheim Capital Llc 2016-09-30 37,236 Sold Some -60,124 $ -594 $ 368
Bluefin Trading Llc 2016-09-30 0 Sold All -74,600 $ -737 $ 0